Latest Weather Observations for Warruwi

IDD60801

Issued at 10:35 pm CST Thursday 24 April 2014 (issued every 30 minutes, with the page automatically refreshed every 10 minutes)

About weather observations | Map of weather stations | Latest weather observations for NT | Other Formats
Station Details ID: 014401 Name: WARRUWI AIRPORT Lat: -11.65 Lon: 133.38 Height: 19.2 m
Data from the previous 72 hours. | See also: Recent months at Warruwi
Date/Time
CST
Temp
°C
App
Temp
°C
Dew
Point
Rel
Hum
%
Delta-T
°C
Wind Press
QNH
hPa
Press
MSL
hPa
Rain
since 9 am
mm
Dir
 
Spd
km/h
Gust
km/h
Spd
kts
Gust
kts
24/10:30pm 27.4 32.3 24.7 85 1.9 SE 7 11 4 6 1008.7 1008.5 0.0
24/10:00pm 27.8 32.4 24.8 84 2.1 ESE 9 15 5 8 1008.8 - 0.0
24/09:30pm 27.5 32.9 25.1 87 1.7 ESE 6 9 3 5 1008.7 1008.5 0.0
24/09:00pm 27.6 32.9 25.0 86 1.8 SE 6 7 3 4 1008.4 1008.2 0.0
24/08:30pm 27.9 33.0 24.7 83 2.2 SE 6 9 3 5 1008.1 1007.9 0.0
24/08:00pm 28.1 33.2 24.7 82 2.4 SE 6 9 3 5 1007.5 - 0.0
24/07:30pm 28.2 33.3 25.0 83 2.2 SE 7 9 4 5 1007.1 1006.9 0.0
24/07:00pm 28.2 34.1 25.4 85 2.0 SSE 4 7 2 4 1006.6 - 0.0
24/06:30pm 28.5 34.4 25.3 83 2.3 SE 4 6 2 3 1006.1 1005.9 0.0
24/06:00pm 28.9 34.4 25.3 81 2.5 S 6 7 3 4 1005.5 1005.3 0.0
24/05:30pm 29.2 34.6 25.2 79 2.8 S 6 9 3 5 1005.2 1005.0 0.0
24/05:00pm 29.3 34.6 25.3 79 2.8 S 7 13 4 7 1004.8 - 0.0
24/04:30pm 29.3 34.1 25.7 81 2.6 S 11 17 6 9 1004.7 1004.5 0.0
24/04:00pm 29.0 33.1 25.2 80 2.7 S 13 20 7 11 1004.8 - 0.0
24/03:30pm 30.0 34.4 25.7 78 3.1 S 13 19 7 10 1004.9 1004.7 0.0
24/03:00pm 28.6 32.1 24.8 80 2.7 S 15 20 8 11 1005.2 1005.0 0.0
24/02:30pm 28.5 33.3 25.1 82 2.4 SSE 9 15 5 8 1006.0 1005.8 0.0
24/02:00pm 28.6 32.6 25.0 81 2.5 S 13 20 7 11 1006.5 - 0.0
24/01:30pm 28.7 33.0 25.5 83 2.3 S 13 19 7 10 1007.0 1006.8 0.0
24/01:00pm 28.5 33.8 25.3 83 2.3 SE 7 13 4 7 1007.1 - 0.0
24/12:30pm 27.1 32.7 25.7 92 1.0 SE 7 13 4 7 1007.3 1007.1 0.0
24/12:00pm 26.6 30.8 25.4 93 0.8 ESE 13 19 7 10 1007.8 1007.6 0.0
24/11:30am 27.6 30.8 24.4 83 2.2 SE 15 22 8 12 1008.1 1007.9 0.0
24/11:00am 27.8 30.3 24.4 82 2.4 SE 19 26 10 14 1008.4 - 0.0
24/10:30am 27.4 30.1 24.1 82 2.3 SSE 17 24 9 13 1008.4 1008.2 0.0
24/10:00am 26.8 30.0 24.3 86 1.7 SSE 15 24 8 13 1008.6 - 0.0
24/09:30am 26.4 29.5 24.1 87 1.6 SSE 15 20 8 11 1008.6 1008.4 0.0
24/09:00am 26.2 30.3 23.9 87 1.6 SSE 9 15 5 8 1008.6 1008.4 2.6
24/08:30am 25.8 29.6 23.5 87 1.6 S 9 13 5 7 1008.6 1008.4 2.6
24/08:00am 25.7 29.5 23.4 87 1.6 S 9 17 5 9 1008.5 - 2.6
24/07:30am 25.7 28.4 23.4 87 1.6 SSE 15 24 8 13 1007.6 1007.4 2.6
24/07:00am 25.7 28.0 23.4 87 1.6 SE 17 22 9 12 1007.3 - 2.6
24/06:30am 25.6 27.8 23.3 87 1.6 SE 17 22 9 12 1006.6 1006.4 2.6
24/06:00am 25.8 27.6 23.3 86 1.7 SE 19 32 10 17 1005.9 1005.7 2.6
24/05:30am 25.9 27.8 23.4 86 1.7 SE 19 30 10 16 1005.4 1005.2 2.6
24/05:00am 25.7 28.1 23.6 88 1.4 SE 17 24 9 13 1005.4 - 2.6
24/04:30am 25.6 28.3 23.5 88 1.4 SSE 15 24 8 13 1005.6 1005.4 2.6
24/04:00am 25.6 27.9 23.5 88 1.4 SSE 17 26 9 14 1005.7 - 2.6
24/03:30am 25.9 28.5 23.9 89 1.4 SE 17 24 9 13 1005.5 1005.3 2.6
24/03:00am 25.9 29.2 23.9 89 1.4 SE 13 19 7 10 1005.2 1005.0 2.6
24/02:30am 26.1 29.2 24.1 89 1.4 SE 15 24 8 13 1005.6 1005.4 2.6
24/02:00am 26.0 28.9 24.4 91 1.1 SSE 17 28 9 15 1006.0 - 2.6
24/01:30am 26.0 28.6 24.0 89 1.4 SSE 17 30 9 16 1006.7 1006.5 2.6
24/01:00am 26.4 29.4 24.6 90 1.2 SSE 17 26 9 14 1007.4 - 2.6
24/12:30am 26.3 30.1 24.7 91 1.1 S 13 24 7 13 1007.6 1007.4 2.6
24/12:00am 26.2 30.4 24.8 92 1.0 SSE 11 20 6 11 1008.0 1007.8 2.6
 
Date/Time
CST
Temp
°C
App
Temp
°C
Dew
Point
Rel
Hum
%
Delta-T
°C
Wind Press
QNH
hPa
Press
MSL
hPa
Rain
since 9 am
mm
Dir
 
Spd
km/h
Gust
km/h
Spd
kts
Gust
kts
23/11:30pm 26.4 30.4 25.0 92 1.0 S 13 20 7 11 1008.4 1008.2 2.6
23/11:00pm 26.7 31.0 24.9 90 1.3 SSE 11 17 6 9 1008.3 - 2.6
23/10:30pm 27.1 31.4 25.5 91 1.1 SE 13 20 7 11 1008.6 1008.4 2.6
23/10:00pm 27.1 30.9 25.3 90 1.3 SE 15 22 8 12 1008.7 - 2.6
23/09:30pm 26.9 31.3 25.1 90 1.3 SE 11 19 6 10 1009.1 1008.9 2.6
23/09:00pm 26.9 31.2 24.9 89 1.4 SE 11 15 6 8 1008.8 1008.6 2.6
23/08:30pm 27.2 31.2 25.0 88 1.5 SE 13 20 7 11 1008.4 1008.2 2.6
23/08:00pm 27.0 31.9 25.2 90 1.3 ESE 9 13 5 7 1007.4 - 2.6
23/07:30pm 26.7 31.8 24.9 90 1.3 E 7 11 4 6 1006.9 1006.7 2.6
23/07:00pm 26.4 31.0 24.8 91 1.1 E 9 15 5 8 1006.5 - 2.6
23/06:30pm 26.9 31.5 24.7 88 1.5 ESE 9 11 5 6 1006.3 1006.1 2.6
23/06:00pm 27.1 32.2 24.9 88 1.5 E 7 13 4 7 1007.1 1006.9 2.6
23/05:30pm 27.1 31.1 24.4 85 1.9 E 11 15 6 8 1006.9 1006.7 2.6
23/05:00pm 27.4 31.6 24.7 85 1.9 E 11 17 6 9 1006.5 - 2.6
23/04:30pm 27.6 32.1 24.6 84 2.1 E 9 13 5 7 1006.5 1006.3 2.6
23/04:00pm 28.6 32.7 24.6 79 2.8 E 11 19 6 10 1006.3 - 2.6
23/03:30pm 29.0 33.6 24.8 78 2.9 E 9 13 5 7 1006.2 1006.0 2.6
23/03:00pm 29.4 33.8 24.5 75 3.4 NE 9 20 5 11 1006.3 1006.1 2.6
23/02:30pm 29.3 33.9 24.8 77 3.2 ENE 9 13 5 7 1006.8 1006.6 2.6
23/02:00pm 28.2 33.3 25.0 83 2.2 NE 7 15 4 8 1007.1 - 2.6
23/01:30pm 27.3 32.8 24.7 86 1.8 ENE 4 7 2 4 1007.4 1007.2 2.6
23/01:00pm 26.7 31.5 25.1 91 1.1 NNE 9 20 5 11 1008.2 - 2.2
23/12:30pm 27.8 32.3 25.2 86 1.8 E 11 17 6 9 1008.3 1008.1 0.8
23/12:00pm 26.4 31.7 25.0 92 1.0 NE 6 9 3 5 1008.8 1008.6 0.8
23/11:30am 26.7 30.1 24.0 85 1.9 ENE 13 24 7 13 1009.2 1009.0 0.0
23/11:00am 30.0 33.9 25.5 77 3.2 E 15 20 8 11 1009.3 - 0.0
23/10:30am 29.3 32.7 25.3 79 2.8 ESE 17 24 9 13 1009.6 1009.4 0.0
23/10:00am 28.6 31.8 25.0 81 2.5 ESE 17 26 9 14 1010.0 - 0.0
23/09:30am 28.8 32.2 25.2 81 2.5 ESE 17 22 9 12 1010.1 1009.9 0.0
23/09:00am 28.1 31.6 24.9 83 2.2 SE 15 20 8 11 1009.7 1009.5 5.4
23/08:30am 27.8 32.4 24.8 84 2.1 SE 9 17 5 9 1009.5 1009.3 5.4
23/08:00am 26.9 30.9 24.4 86 1.7 SE 11 15 6 8 1009.1 - 5.4
23/07:30am 26.4 30.4 24.4 89 1.4 SE 11 13 6 7 1009.1 1008.9 5.4
23/07:00am 26.3 30.2 24.3 89 1.4 ESE 11 15 6 8 1008.8 - 5.4
23/06:30am 26.4 30.8 24.4 89 1.4 ESE 9 13 5 7 1008.5 1008.3 5.4
23/06:00am 26.1 31.5 24.5 91 1.1 E 4 6 2 3 1008.3 1008.1 5.4
23/05:30am 26.3 31.2 24.3 89 1.4 ENE 6 9 3 5 1008.1 1007.9 5.4
23/05:00am 26.1 30.2 24.0 88 1.4 E 9 11 5 6 1008.1 - 5.4
23/04:30am 26.1 29.9 24.0 88 1.4 ESE 11 15 6 8 1008.2 1008.0 5.4
23/04:00am 25.9 29.5 23.8 88 1.4 ESE 11 15 6 8 1008.3 - 5.4
23/03:30am 25.9 29.9 23.8 88 1.4 ESE 9 15 5 8 1008.3 1008.1 5.4
23/03:00am 26.1 29.6 23.6 86 1.7 ESE 11 17 6 9 1008.6 1008.4 5.4
23/02:30am 26.5 30.6 24.0 86 1.7 SE 9 13 5 7 1008.7 1008.5 5.4
23/02:00am 26.5 29.8 23.8 85 1.9 ESE 13 20 7 11 1008.7 - 5.4
23/01:30am 26.5 29.5 24.0 86 1.7 SE 15 24 8 13 1008.5 1008.3 5.4
23/01:00am 26.2 28.3 23.7 86 1.7 SE 19 26 10 14 1008.9 - 5.4
23/12:30am 26.1 28.2 23.8 87 1.6 ESE 19 26 10 14 1009.5 1009.3 5.4
23/12:00am 26.0 28.6 24.0 89 1.4 SE 17 24 9 13 1010.1 1009.9 5.4
 
Date/Time
CST
Temp
°C
App
Temp
°C
Dew
Point
Rel
Hum
%
Delta-T
°C
Wind Press
QNH
hPa
Press
MSL
hPa
Rain
since 9 am
mm
Dir
 
Spd
km/h
Gust
km/h
Spd
kts
Gust
kts
22/11:30pm 26.1 28.4 24.1 89 1.4 ESE 19 28 10 15 1010.3 1010.1 5.4
22/11:00pm 25.9 28.1 24.3 91 1.1 ESE 20 32 11 17 1010.5 - 5.4
22/10:30pm 26.0 28.2 24.0 89 1.4 SE 19 28 10 15 1010.4 1010.2 5.2
22/10:00pm 26.2 28.9 24.2 89 1.4 ESE 17 26 9 14 1010.7 - 5.2
22/09:30pm 25.8 29.5 24.6 93 0.8 ESE 13 19 7 10 1010.5 1010.3 5.2
22/09:00pm 25.7 29.6 24.8 95 0.6 ESE 13 20 7 11 1010.4 1010.2 5.2
22/08:30pm 25.3 29.3 24.4 95 0.6 ESE 11 19 6 10 1010.2 1010.0 4.8
22/08:00pm 25.1 26.7 23.9 93 0.8 E 22 32 12 17 1010.1 - 2.0
22/07:30pm 25.1 26.6 23.7 92 1.0 ESE 22 32 12 17 1009.7 1009.5 0.8
22/07:00pm 25.5 27.9 23.6 89 1.3 SE 17 30 9 16 1009.5 - 0.4
22/06:30pm 26.9 28.0 24.9 89 1.4 E 28 41 15 22 1008.9 1008.7 0.2
22/06:00pm 26.8 28.8 24.6 88 1.5 ESE 22 32 12 17 1008.2 1008.0 0.2
22/05:30pm 28.8 31.8 24.6 78 2.9 E 17 32 9 17 1007.7 1007.5 0.0
22/05:00pm 30.2 34.2 25.0 73 3.7 E 13 20 7 11 1007.2 - 0.0
22/04:30pm 30.4 34.3 24.8 72 3.9 ENE 13 22 7 12 1006.9 1006.7 0.0
22/04:00pm 30.8 34.9 25.2 72 4.0 E 13 19 7 10 1006.8 - 0.0
22/03:30pm 30.8 35.4 25.4 73 3.8 E 11 19 6 10 1006.7 1006.5 0.0
22/03:00pm 30.8 34.5 25.2 72 4.0 E 15 24 8 13 1006.9 1006.7 0.0
22/02:30pm 31.1 34.3 25.0 70 4.3 E 17 24 9 13 1007.0 1006.8 0.0
22/02:00pm 32.1 34.6 24.7 65 5.2 E 20 28 11 15 1007.3 - 0.0
22/01:30pm 31.6 34.5 24.5 66 5.0 E 17 26 9 14 1007.8 1007.6 0.0
22/01:00pm 31.4 34.0 24.0 65 5.2 ESE 17 22 9 12 1008.1 - 0.0
22/12:30pm 31.2 33.9 24.1 66 5.0 ESE 17 24 9 13 1008.6 1008.4 0.0
22/12:00pm 31.0 32.6 23.9 66 4.9 ESE 22 30 12 16 1009.4 1009.2 0.0
22/11:30am 30.8 33.0 24.2 68 4.6 SE 20 32 11 17 1009.9 1009.7 0.0
22/11:00am 30.2 31.1 23.9 69 4.4 SE 26 35 14 19 1010.4 - 0.0
22/10:30am 30.4 32.2 24.3 70 4.3 ESE 22 32 12 17 1011.0 1010.8 0.0
22/10:00am 29.6 31.0 24.2 73 3.8 ESE 24 33 13 18 1011.5 - 0.0
22/09:30am 28.3 30.0 23.4 75 3.4 ESE 20 30 11 16 1011.7 1011.5 0.0
22/09:00am 28.5 30.3 23.6 75 3.4 SE 20 32 11 17 1011.3 1011.1 0.0
22/08:30am 27.6 29.2 22.8 75 3.3 SE 19 28 10 15 1011.2 1011.0 0.0
22/08:00am 27.6 29.2 22.8 75 3.3 SE 19 26 10 14 1010.8 - 0.0
22/07:30am 26.6 28.1 22.7 79 2.6 SE 19 30 10 16 1010.6 1010.4 0.0
22/07:00am 26.4 27.7 22.3 78 2.8 SE 19 24 10 13 1010.4 - 0.0
22/06:30am 26.3 27.5 22.2 78 2.8 SE 19 26 10 14 1010.0 1009.8 0.0
22/06:00am 26.3 27.4 21.9 77 2.9 SE 19 35 10 19 1009.7 1009.5 0.0
22/05:30am 26.4 27.9 22.0 77 3.0 SE 17 24 9 13 1009.5 1009.3 0.0
22/05:00am 26.4 27.8 21.8 76 3.1 SE 17 24 9 13 1009.3 - 0.0
22/04:30am 26.5 27.3 21.7 75 3.2 SE 20 30 11 16 1009.4 1009.2 0.0
22/04:00am 26.6 28.1 22.0 76 3.1 SE 17 26 9 14 1009.3 - 0.0
22/03:30am 26.8 27.9 22.0 75 3.2 ESE 19 28 10 15 1009.3 1009.1 0.0
22/03:00am 26.8 28.8 22.2 76 3.1 SE 15 24 8 13 1009.4 1009.2 0.0
22/02:30am 27.0 28.2 22.2 75 3.2 SE 19 26 10 14 1009.4 1009.2 0.0
22/02:00am 27.3 28.2 22.0 73 3.6 ESE 20 32 11 17 1009.5 - 0.0
22/01:30am 27.4 28.6 22.1 73 3.6 ESE 19 26 10 14 1009.8 1009.6 0.0
22/01:00am 27.5 28.6 22.4 73 3.4 ESE 20 30 11 16 1010.1 - 0.0
22/12:30am 27.2 29.2 23.0 78 2.9 SE 17 26 9 14 1010.4 1010.2 0.0
22/12:00am 27.1 30.5 23.3 80 2.6 SE 11 17 6 9 1010.5 1010.3 0.0
 
Date/Time
CST
Temp
°C
App
Temp
°C
Dew
Point
Rel
Hum
%
Delta-T
°C
Wind Press
QNH
hPa
Press
MSL
hPa
Rain
since 9 am
mm
Dir
 
Spd
km/h
Gust
km/h
Spd
kts
Gust
kts
21/11:30pm 27.1 31.0 23.6 81 2.4 SE 9 15 5 8 1010.7 1010.5 0.0
21/11:00pm 27.0 30.7 23.3 80 2.5 SE 9 13 5 7 1010.7 - 0.0

Other Formats:

Comma delimited format used in spreadsheet applications
http://www.bom.gov.au/fwo/IDD60801/IDD60801.94139.axf

JavaScript Object Notation format (JSON) in row-major order
http://www.bom.gov.au/fwo/IDD60801/IDD60801.94139.json